Time;durP1;ratioP1;P1;durP2;ratioP2;P2;SDS_P1;SDS_P2;PMS_P1;PMS_P2;Temp;Humidity;BMP_temperature;BMP_pressure;BME280_temperature;BME280_humidity;BME280_pressure;Samples;Min_cycle;Max_cycle;Signal;HPM_P1;HPM_P2
2022/06/13 00:01:19;;;;;;;0.10;0.10;;;;;;;22.53;37.15;100190.66;5053922;28;20040;-72
2022/06/13 00:03:46;;;;;;;0.10;0.10;;;;;;;22.61;36.71;100198.53;5053858;28;20029;-74
2022/06/13 00:06:12;;;;;;;0.10;0.10;;;;;;;22.57;37.70;100199.88;5053870;28;20021;-72
2022/06/13 00:08:38;;;;;;;0.10;0.10;;;;;;;22.50;38.54;100192.34;5054100;28;20052;-72
2022/06/13 00:11:09;;;;;;;0.10;0.10;;;;;;;22.49;38.36;100194.41;5054011;28;20032;-73
2022/06/13 00:13:36;;;;;;;0.10;0.10;;;;;;;22.74;38.56;100195.75;5053425;28;20025;-72
2022/06/13 00:16:03;;;;;;;0.15;0.15;;;;;;;22.60;39.14;100196.97;5053648;28;20031;-73
2022/06/13 00:18:28;;;;;;;0.10;0.10;;;;;;;22.54;38.80;100186.59;5053560;28;20025;-73
2022/06/13 00:20:55;;;;;;;0.10;0.10;;;;;;;22.47;38.86;100181.91;5053570;28;20036;-73
2022/06/13 00:23:21;;;;;;;0.10;0.10;;;;;;;22.59;37.84;100181.19;5053519;28;20455;-73
2022/06/13 00:25:46;;;;;;;0.15;0.15;;;;;;;22.35;38.00;100172.06;5053718;28;20119;-72
2022/06/13 00:28:12;;;;;;;0.10;0.10;;;;;;;22.27;38.77;100162.19;5053747;28;20090;-74
2022/06/13 00:30:38;;;;;;;0.10;0.10;;;;;;;22.29;39.11;100173.06;5054234;28;20451;-72
2022/06/13 00:33:06;;;;;;;0.10;0.10;;;;;;;22.35;38.96;100168.44;5053659;28;20486;-72
2022/06/13 00:35:32;;;;;;;0.10;0.10;;;;;;;22.32;39.75;100163.66;5054074;28;20485;-73
2022/06/13 00:38:00;;;;;;;0.10;0.10;;;;;;;22.26;39.95;100171.09;5053203;28;20068;-72
2022/06/13 00:40:25;;;;;;;0.10;0.10;;;;;;;22.22;40.34;100166.34;5054429;28;20103;-71
2022/06/13 00:42:51;;;;;;;0.10;0.10;;;;;;;22.05;40.50;100159.06;5052934;28;20527;-71
2022/06/13 00:45:24;;;;;;;0.10;0.10;;;;;;;21.98;40.96;100162.03;5053653;28;20037;-74
2022/06/13 00:47:54;;;;;;;0.10;0.10;;;;;;;22.04;40.81;100159.47;5053330;28;20054;-72
2022/06/13 00:50:38;;;;;;;0.10;0.10;;;;;;;21.86;40.92;100166.38;5052780;28;20045;-71
2022/06/13 00:53:15;;;;;;;0.10;0.10;;;;;;;21.75;41.02;100163.00;5053537;28;20407;-72
2022/06/13 00:56:03;;;;;;;0.10;0.10;;;;;;;21.63;41.53;100163.69;5052945;28;20035;-71
2022/06/13 00:58:33;;;;;;;0.17;0.17;;;;;;;21.68;41.48;100137.69;5052324;28;20032;-72
2022/06/13 01:00:59;;;;;;;0.13;0.13;;;;;;;21.65;41.82;100152.72;5054663;28;20029;-72
2022/06/13 01:03:28;;;;;;;0.13;0.13;;;;;;;21.52;41.91;100152.59;5052444;28;20090;-71
2022/06/13 01:05:57;;;;;;;0.10;0.10;;;;;;;21.56;42.15;100152.50;5053494;28;20112;-70
2022/06/13 01:08:24;;;;;;;0.20;0.20;;;;;;;21.43;41.74;100153.19;5052729;28;20029;-74
2022/06/13 01:14:14;;;;;;;0.10;0.10;;;;;;;21.37;42.04;100149.28;5054457;28;20429;-71
2022/06/13 01:16:40;;;;;;;0.10;0.10;;;;;;;21.26;42.55;100162.03;5054097;28;20035;-73
2022/06/13 01:19:24;;;;;;;0.10;0.10;;;;;;;21.27;42.06;100149.50;5053040;28;20025;-71
2022/06/13 01:22:04;;;;;;;0.10;0.10;;;;;;;21.24;42.60;100142.66;5052481;28;20186;-72
2022/06/13 01:25:05;;;;;;;0.10;0.10;;;;;;;21.13;42.63;100137.22;5052485;28;20028;-71
2022/06/13 01:27:46;;;;;;;0.10;0.10;;;;;;;21.17;42.48;100140.78;5052413;28;20040;-72
2022/06/13 01:30:39;;;;;;;0.13;0.13;;;;;;;21.20;42.81;100144.78;5052374;28;20021;-72
2022/06/13 01:33:17;;;;;;;0.10;0.10;;;;;;;21.12;43.25;100138.47;5052389;28;20032;-73
2022/06/13 01:36:01;;;;;;;0.10;0.10;;;;;;;21.10;43.16;100131.66;5052333;28;20114;-72
2022/06/13 01:38:57;;;;;;;0.10;0.10;;;;;;;21.06;43.68;100130.94;5053510;28;20079;-71
2022/06/13 01:41:40;;;;;;;0.10;0.10;;;;;;;21.08;43.43;100128.44;5052263;28;20085;-72
2022/06/13 01:44:23;;;;;;;0.10;0.10;;;;;;;21.08;43.56;100140.56;5053381;28;20128;-71
2022/06/13 01:47:03;;;;;;;;;;;;;;;21.02;42.52;100130.19;5053215;28;20482;-71
2022/06/13 01:49:37;;;;;;;0.10;0.10;;;;;;;21.01;41.45;100134.28;5052435;28;20367;-72
2022/06/13 01:52:16;;;;;;;0.10;0.10;;;;;;;21.03;40.75;100126.13;5052486;28;20040;-71
2022/06/13 01:54:48;;;;;;;0.10;0.10;;;;;;;21.16;41.16;100129.91;5052707;28;20128;-71
2022/06/13 01:57:19;;;;;;;0.10;0.10;;;;;;;21.11;41.14;100116.28;5052397;28;20166;-72
2022/06/13 01:59:52;;;;;;;0.10;0.10;;;;;;;21.14;40.80;100121.03;5052048;28;20067;-73
2022/06/13 02:02:36;;;;;;;0.10;0.10;;;;;;;21.29;40.35;100113.06;5052128;28;20122;-72
2022/06/13 02:05:08;;;;;;;0.10;0.10;;;;;;;21.19;41.04;100114.88;5052087;28;20142;-73
2022/06/13 02:07:41;;;;;;;0.20;0.20;;;;;;;21.17;42.07;100120.19;5052321;28;20032;-71
2022/06/13 02:10:12;;;;;;;0.10;0.10;;;;;;;21.15;42.41;100114.19;5052303;28;20033;-73
2022/06/13 02:12:40;;;;;;;0.10;0.10;;;;;;;21.11;42.87;100104.97;5052036;28;20025;-71
2022/06/13 02:15:14;;;;;;;0.10;0.10;;;;;;;21.09;43.12;100113.06;5051921;28;20120;-73
2022/06/13 02:17:49;;;;;;;0.10;0.10;;;;;;;21.19;41.39;100110.00;5056346;28;20025;-71
2022/06/13 02:20:20;;;;;;;0.10;0.10;;;;;;;21.13;40.69;100108.13;5055897;28;20065;-71
2022/06/13 02:22:57;;;;;;;0.10;0.10;;;;;;;21.18;41.86;100113.28;5056101;28;20025;-72
2022/06/13 02:25:30;;;;;;;0.20;0.20;;;;;;;21.16;42.28;100113.72;5056027;28;20447;-72
2022/06/13 02:28:01;;;;;;;0.10;0.10;;;;;;;21.27;42.52;100113.50;5056014;28;20447;-72
2022/06/13 02:30:34;;;;;;;0.10;0.10;;;;;;;21.19;42.69;100120.53;5039232;28;20037;-73
2022/06/13 02:33:08;;;;;;;0.10;0.10;;;;;;;21.06;43.10;100113.97;5055640;28;20075;-72
2022/06/13 02:35:39;;;;;;;0.13;0.13;;;;;;;21.03;42.93;100126.13;5056131;28;20032;-73
2022/06/13 02:38:24;;;;;;;0.10;0.10;;;;;;;20.87;42.91;100124.81;5055447;28;20063;-73
2022/06/13 02:41:00;;;;;;;0.10;0.10;;;;;;;20.86;42.44;100123.22;5056448;28;20033;-74
2022/06/13 02:43:36;;;;;;;0.10;0.10;;;;;;;20.78;42.03;100126.66;5055316;28;20059;-72
2022/06/13 02:46:09;;;;;;;0.10;0.10;;;;;;;20.85;41.14;100121.66;5055948;28;20025;-71
2022/06/13 02:48:56;;;;;;;0.10;0.10;;;;;;;20.85;41.25;100118.03;5055899;28;20086;-73
2022/06/13 02:51:53;;;;;;;0.20;0.20;;;;;;;20.79;41.43;100123.38;5038919;28;20029;-72
2022/06/13 02:54:30;;;;;;;0.10;0.10;;;;;;;20.85;41.28;100121.66;5034525;28;20040;-72
2022/06/13 02:57:27;;;;;;;0.10;0.10;;;;;;;20.90;41.65;100135.28;5057001;28;20025;-71
2022/06/13 03:00:13;;;;;;;0.10;0.10;;;;;;;21.08;41.99;100134.13;5055120;28;20047;-72
2022/06/13 03:02:52;;;;;;;0.10;0.10;;;;;;;20.87;42.36;100121.19;5055874;28;20444;-74
2022/06/13 03:05:43;;;;;;;0.20;0.20;;;;;;;20.89;42.73;100133.69;5054707;28;20029;-73
2022/06/13 03:08:44;;;;;;;0.20;0.20;;;;;;;20.95;42.47;100130.34;5054943;28;20025;-71
2022/06/13 03:11:27;;;;;;;0.10;0.10;;;;;;;20.81;41.31;100137.88;5055211;28;20371;-73
2022/06/13 03:13:54;;;;;;;0.20;0.20;;;;;;;20.80;41.33;100127.81;5055946;28;20029;-71
2022/06/13 03:16:35;;;;;;;0.10;0.10;;;;;;;20.89;40.81;100130.88;5054823;28;20033;-72
2022/06/13 03:19:10;;;;;;;0.10;0.10;;;;;;;20.88;41.32;100120.78;5056212;28;20536;-72
2022/06/13 03:21:42;;;;;;;0.10;0.10;;;;;;;21.10;40.54;100132.47;5054992;28;20510;-72
2022/06/13 03:24:47;;;;;;;0.10;0.10;;;;;;;21.08;40.50;100128.44;5055673;28;20472;-71
2022/06/13 03:27:21;;;;;;;0.10;0.10;;;;;;;20.96;42.03;100120.63;5053385;28;20520;-70
2022/06/13 03:30:03;;;;;;;0.20;0.20;;;;;;;20.94;42.21;100129.56;5055117;28;20067;-71
2022/06/13 03:32:34;;;;;;;0.10;0.10;;;;;;;21.00;42.34;100121.38;5054477;28;20033;-71
2022/06/13 03:35:08;;;;;;;0.15;0.15;;;;;;;21.05;42.27;100113.16;5055446;28;20075;-72
2022/06/13 03:37:45;;;;;;;0.10;0.10;;;;;;;20.90;42.57;100115.50;5054310;28;20033;-71
2022/06/13 03:40:25;;;;;;;0.10;0.10;;;;;;;21.12;42.17;100123.53;5055937;28;20033;-72
2022/06/13 03:42:59;;;;;;;0.10;0.10;;;;;;;21.02;42.34;100128.16;5054082;28;20041;-73
2022/06/13 03:45:43;;;;;;;0.10;0.10;;;;;;;21.10;41.76;100123.19;5054286;28;20021;-72
2022/06/13 03:48:38;;;;;;;0.10;0.10;;;;;;;21.23;41.81;100117.63;5055282;28;20040;-70
2022/06/13 03:51:13;;;;;;;0.10;0.10;;;;;;;21.29;42.65;100128.00;5048306;28;20537;-72
2022/06/13 03:53:46;;;;;;;0.10;0.10;;;;;;;21.27;40.52;100132.50;5054104;28;20482;-71
2022/06/13 03:56:11;;;;;;;0.10;0.10;;;;;;;21.12;40.94;100129.97;5054105;28;20475;-71
2022/06/13 03:58:46;;;;;;;0.10;0.10;;;;;;;21.66;40.66;100137.31;5054477;28;20053;-72
2022/06/13 04:01:28;;;;;;;0.10;0.10;;;;;;;22.45;39.10;100139.81;5054521;28;20052;-71
2022/06/13 04:04:00;;;;;;;0.10;0.10;;;;;;;23.11;37.79;100128.31;5054460;28;20029;-71
2022/06/13 04:06:30;;;;;;;0.10;0.10;;;;;;;23.67;36.80;100122.97;5054384;28;20029;-72
2022/06/13 04:08:57;;;;;;;0.13;0.13;;;;;;;24.24;35.90;100123.94;5054337;28;20033;-73
2022/06/13 04:11:30;;;;;;;0.10;0.10;;;;;;;24.75;34.92;100128.69;5037892;28;20119;-73
2022/06/13 04:13:55;;;;;;;0.10;0.10;;;;;;;25.17;34.57;100122.69;5053740;28;20059;-72
2022/06/13 04:16:21;;;;;;;0.10;0.10;;;;;;;25.50;34.05;100126.66;5054499;28;20029;-71
2022/06/13 04:18:57;;;;;;;0.10;0.10;;;;;;;25.83;32.91;100117.66;5054101;28;20029;-73
2022/06/13 04:21:35;;;;;;;0.10;0.10;;;;;;;26.28;32.67;100116.97;5054150;28;20029;-71
2022/06/13 04:24:28;;;;;;;0.10;0.10;;;;;;;26.68;31.67;100126.69;5053560;28;20082;-71
2022/06/13 04:27:10;;;;;;;0.10;0.10;;;;;;;26.87;31.00;100126.22;5055017;28;20111;-73
2022/06/13 04:29:44;;;;;;;0.10;0.10;;;;;;;26.56;30.56;100109.25;5053675;28;20392;-72
2022/06/13 04:32:15;;;;;;;0.10;0.10;;;;;;;27.28;29.45;100123.19;5053296;28;20036;-72
2022/06/13 04:34:49;;;;;;;0.10;0.10;;;;;;;27.38;29.52;100130.47;5036953;28;20037;-72
2022/06/13 04:37:17;;;;;;;0.10;0.10;;;;;;;27.35;28.81;100083.66;5054766;28;20032;-72
2022/06/13 04:39:46;;;;;;;0.10;0.10;;;;;;;27.99;28.74;100128.34;5052335;28;20045;-73
2022/06/13 04:42:14;;;;;;;0.10;0.10;;;;;;;27.83;28.46;100128.75;5052917;28;20029;-72
2022/06/13 04:44:44;;;;;;;0.10;0.10;;;;;;;28.08;27.74;100127.50;5053267;28;20029;-73
2022/06/13 04:47:14;;;;;;;0.10;0.10;;;;;;;27.77;28.51;100124.97;5053129;28;20035;-73
2022/06/13 04:49:58;;;;;;;0.10;0.10;;;;;;;28.05;27.74;100122.75;5053104;28;20033;-74
2022/06/13 04:52:29;;;;;;;0.10;0.10;;;;;;;27.78;28.48;100120.81;5053563;28;20033;-72
2022/06/13 04:55:04;;;;;;;0.10;0.10;;;;;;;28.83;27.39;100120.78;5053252;28;20039;-74
2022/06/13 04:57:30;;;;;;;0.10;0.10;;;;;;;29.11;26.75;100116.41;5052818;28;20021;-75
2022/06/13 04:59:56;;;;;;;0.10;0.10;;;;;;;28.74;27.03;100126.59;5052854;28;20029;-73
2022/06/13 05:02:33;;;;;;;0.10;0.10;;;;;;;29.37;26.65;100133.00;5052854;28;20033;-75
2022/06/13 05:05:02;;;;;;;0.10;0.10;;;;;;;29.89;25.90;100127.63;5053037;28;20041;-73
2022/06/13 05:07:27;;;;;;;0.10;0.10;;;;;;;28.98;26.03;100130.22;5053564;28;20036;-73
2022/06/13 05:09:59;;;;;;;0.10;0.10;;;;;;;29.13;26.62;100119.56;5052833;28;20041;-74
2022/06/13 05:12:43;;;;;;;0.10;0.10;;;;;;;29.09;26.38;100124.72;5036797;28;20099;-75
2022/06/13 05:15:21;;;;;;;0.10;0.10;;;;;;;29.05;26.85;100124.09;5053586;28;20078;-75
2022/06/13 05:18:01;;;;;;;0.10;0.10;;;;;;;29.79;26.36;100114.72;5053679;28;20051;-73
2022/06/13 05:21:09;;;;;;;0.10;0.10;;;;;;;30.79;25.18;100118.19;5052486;28;20025;-74
2022/06/13 05:23:41;;;;;;;0.10;0.10;;;;;;;31.33;24.64;100123.47;5052521;28;20031;-73
2022/06/13 05:26:08;;;;;;;0.10;0.10;;;;;;;31.26;24.61;100128.34;5053216;28;20024;-73
2022/06/13 05:28:35;;;;;;;0.10;0.10;;;;;;;30.84;24.29;100136.75;5053729;28;20126;-73
2022/06/13 05:31:18;;;;;;;0.10;0.10;;;;;;;31.17;24.60;100130.59;5051869;28;20120;-74
2022/06/13 05:33:45;;;;;;;;;;;;;;;31.29;24.16;100126.56;5054567;28;20051;-73
2022/06/13 05:36:18;;;;;;;0.10;0.10;;;;;;;30.87;24.72;100130.03;5052006;28;19913;-74
2022/06/13 05:38:56;;;;;;;0.10;0.10;;;;;;;29.86;25.50;100129.41;5052732;28;20032;-75
2022/06/13 05:41:22;;;;;;;0.10;0.10;;;;;;;29.32;26.52;100136.56;5053335;28;20036;-75
2022/06/13 05:43:47;;;;;;;0.10;0.10;;;;;;;30.61;25.83;100139.34;5052134;28;20049;-73
2022/06/13 05:46:29;;;;;;;0.10;0.10;;;;;;;30.98;24.93;100138.75;5052169;28;20471;-74
2022/06/13 05:48:55;;;;;;;0.10;0.10;;;;;;;31.02;24.95;100136.47;5053195;28;20041;-73
2022/06/13 05:51:21;;;;;;;0.10;0.10;;;;;;;31.05;25.28;100135.44;5057378;28;20033;-73
2022/06/13 05:53:46;;;;;;;0.10;0.10;;;;;;;30.85;25.22;100138.38;5059067;28;20120;-74
2022/06/13 05:56:12;;;;;;;0.10;0.10;;;;;;;30.40;25.80;100141.41;5059629;28;20560;-74
2022/06/13 05:58:39;;;;;;;0.10;0.10;;;;;;;30.86;25.50;100142.81;5058734;28;20510;-74
2022/06/13 06:01:07;;;;;;;0.10;0.10;;;;;;;31.34;24.77;100145.16;5059179;28;20029;-73
2022/06/13 06:03:33;;;;;;;0.10;0.10;;;;;;;30.46;25.91;100144.38;5059255;28;20565;-75
2022/06/13 06:06:01;;;;;;;0.10;0.10;;;;;;;30.65;25.36;100153.50;5058957;28;20025;-72
2022/06/13 06:08:30;;;;;;;0.10;0.10;;;;;;;30.27;26.04;100150.38;5059388;28;20083;-74
2022/06/13 06:10:57;;;;;;;0.10;0.10;;;;;;;31.10;25.67;100149.06;5059188;28;20079;-74
2022/06/13 06:13:24;;;;;;;0.10;0.10;;;;;;;31.00;25.57;100156.25;5058579;28;20033;-73
2022/06/13 06:15:51;;;;;;;0.10;0.10;;;;;;;30.44;26.43;100141.22;5060148;28;20021;-73
2022/06/13 06:18:18;;;;;;;0.10;0.10;;;;;;;30.15;26.45;100145.78;5058836;28;20059;-73
2022/06/13 06:20:44;;;;;;;0.10;0.10;;;;;;;31.12;25.50;100146.50;5042097;28;20067;-72
2022/06/13 06:23:12;;;;;;;0.10;0.10;;;;;;;30.80;26.39;100145.63;5059025;28;20037;-73
2022/06/13 06:25:41;;;;;;;0.10;0.10;;;;;;;30.98;25.95;100144.50;5058511;28;20487;-75
2022/06/13 06:28:07;;;;;;;0.10;0.10;;;;;;;30.63;26.43;100142.53;5058674;28;20360;-72
2022/06/13 06:30:34;;;;;;;0.10;0.10;;;;;;;30.81;25.81;100149.28;5058786;28;20102;-73
2022/06/13 06:32:59;;;;;;;0.10;0.10;;;;;;;30.49;26.34;100157.72;5058401;28;20039;-73
2022/06/13 06:35:27;;;;;;;0.10;0.10;;;;;;;30.82;26.04;100150.84;5058922;28;20024;-73
2022/06/13 06:37:54;;;;;;;0.10;0.10;;;;;;;31.25;25.23;100149.78;5059553;28;20037;-72
2022/06/13 06:40:23;;;;;;;0.10;0.10;;;;;;;31.11;25.86;100156.41;5058870;28;20474;-73
2022/06/13 06:42:52;;;;;;;0.10;0.10;;;;;;;30.94;25.89;100152.56;5058188;28;20084;-72
2022/06/13 06:45:20;;;;;;;0.10;0.10;;;;;;;30.74;25.73;100159.91;5058280;28;20057;-72
2022/06/13 06:47:46;;;;;;;0.10;0.10;;;;;;;30.62;26.31;100155.28;5058183;28;20475;-73
2022/06/13 06:50:21;;;;;;;0.10;0.10;;;;;;;30.43;26.33;100156.88;5058141;28;20059;-72
2022/06/13 06:52:47;;;;;;;0.10;0.10;;;;;;;30.66;26.01;100163.69;5059977;28;20138;-73
2022/06/13 07:00:46;;;;;;;0.10;0.10;;;;;;;30.41;26.71;100150.81;5059939;28;20099;-73
2022/06/13 07:03:12;;;;;;;0.10;0.10;;;;;;;29.57;27.92;100164.66;5054652;28;20040;-73
2022/06/13 07:05:37;;;;;;;0.10;0.10;;;;;;;29.85;28.02;100155.72;5054974;28;20028;-75
2022/06/13 07:08:06;;;;;;;0.10;0.10;;;;;;;29.95;27.59;100148.59;5054871;28;20041;-73
2022/06/13 07:10:32;;;;;;;0.10;0.10;;;;;;;30.31;26.80;100158.81;5054867;28;20032;-72
2022/06/13 07:12:58;;;;;;;0.10;0.10;;;;;;;29.89;27.42;100159.97;5055064;28;20344;-74
2022/06/13 07:15:24;;;;;;;0.10;0.10;;;;;;;29.48;27.77;100161.84;5054605;28;20457;-73
2022/06/13 07:17:49;;;;;;;0.10;0.10;;;;;;;29.87;27.31;100150.28;5054667;28;20029;-73
2022/06/13 07:20:15;;;;;;;0.10;0.10;;;;;;;29.40;27.90;100155.75;5054685;28;20040;-73
2022/06/13 07:22:52;;;;;;;0.10;0.10;;;;;;;29.98;27.19;100159.03;5054695;28;20037;-73
2022/06/13 07:25:24;;;;;;;0.10;0.10;;;;;;;29.84;27.34;100154.94;5056488;28;20388;-74
2022/06/13 07:27:50;;;;;;;0.10;0.10;;;;;;;30.39;26.26;100148.47;5054472;28;20033;-73
2022/06/13 07:30:20;;;;;;;0.10;0.10;;;;;;;30.61;25.79;100153.69;5055054;28;20025;-74
2022/06/13 07:32:46;;;;;;;0.10;0.10;;;;;;;31.10;25.13;100136.78;5054432;28;20032;-73
2022/06/13 07:35:15;;;;;;;0.10;0.10;;;;;;;31.02;25.75;100148.75;5055022;28;20124;-73
2022/06/13 07:40:25;;;;;;;0.10;0.10;;;;;;;30.81;25.77;100143.53;5056113;28;20086;-72
2022/06/13 07:42:55;;;;;;;0.10;0.10;;;;;;;31.32;24.61;100142.00;5053982;28;20049;-73
2022/06/13 07:45:24;;;;;;;0.10;0.10;;;;;;;32.34;23.97;100145.94;5055461;28;20495;-74
2022/06/13 07:47:50;;;;;;;0.10;0.10;;;;;;;32.82;22.97;100139.38;5054228;28;20090;-74
2022/06/13 07:50:20;;;;;;;0.10;0.10;;;;;;;33.53;22.54;100144.25;5054070;28;20032;-74
2022/06/13 07:52:50;;;;;;;0.10;0.10;;;;;;;33.72;22.27;100145.31;5054394;28;20033;-73
2022/06/13 07:55:16;;;;;;;0.10;0.10;;;;;;;32.85;22.99;100141.19;5054042;28;20021;-74
2022/06/13 07:57:42;;;;;;;0.10;0.10;;;;;;;33.23;22.63;100135.28;5053739;28;20033;-73
2022/06/13 08:00:17;;;;;;;0.10;0.10;;;;;;;32.68;23.18;100123.06;5054004;28;20036;-74
2022/06/13 08:02:42;;;;;;;0.10;0.10;;;;;;;31.78;23.76;100134.03;5053497;28;20032;-73
2022/06/13 08:05:08;;;;;;;0.10;0.10;;;;;;;32.26;23.25;100135.41;5053675;28;20025;-75
2022/06/13 08:07:33;;;;;;;0.10;0.10;;;;;;;33.46;21.90;100139.03;5055025;28;20039;-73
2022/06/13 08:09:59;;;;;;;0.10;0.10;;;;;;;33.25;22.00;100135.56;5053805;28;20029;-75
2022/06/13 08:12:25;;;;;;;0.10;0.10;;;;;;;34.16;21.72;100143.69;5054200;28;20029;-74
2022/06/13 08:14:51;;;;;;;0.10;0.10;;;;;;;34.31;20.93;100144.19;5052374;28;20150;-74
2022/06/13 08:17:19;;;;;;;0.10;0.10;;;;;;;35.05;20.28;100144.69;5053899;28;20051;-74
2022/06/13 08:19:46;;;;;;;0.10;0.10;;;;;;;34.28;21.49;100145.25;5054291;28;20127;-74
2022/06/13 08:22:12;;;;;;;0.10;0.10;;;;;;;34.50;21.46;100152.28;5055142;28;20025;-73
2022/06/13 08:24:37;;;;;;;0.10;0.10;;;;;;;33.58;22.20;100152.13;5053198;28;20029;-72
2022/06/13 08:27:03;;;;;;;0.10;0.10;;;;;;;32.82;23.69;100150.88;5053257;28;20036;-74
2022/06/13 08:29:29;;;;;;;0.10;0.10;;;;;;;32.38;23.24;100150.69;5036942;28;20029;-73
2022/06/13 08:31:55;;;;;;;0.10;0.10;;;;;;;31.69;24.30;100157.22;5053250;28;20021;-73
2022/06/13 08:34:21;;;;;;;0.10;0.10;;;;;;;31.95;24.73;100156.41;5053878;28;20102;-74
2022/06/13 08:36:47;;;;;;;0.10;0.10;;;;;;;31.40;24.04;100160.38;5053598;28;20451;-73
2022/06/13 08:39:13;;;;;;;0.10;0.10;;;;;;;31.62;23.87;100157.69;5053014;28;20058;-73
2022/06/13 08:42:05;;;;;;;0.10;0.10;;;;;;;31.35;22.51;100158.25;5053444;28;20367;-73
2022/06/13 08:44:43;;;;;;;0.10;0.10;;;;;;;30.99;24.45;100152.59;5054669;28;20048;-73
2022/06/13 08:47:14;;;;;;;0.10;0.10;;;;;;;31.32;23.39;100148.56;5052373;28;20117;-73
2022/06/13 08:49:50;;;;;;;0.10;0.10;;;;;;;32.04;21.21;100153.34;5053010;28;20467;-73
2022/06/13 08:52:34;;;;;;;0.10;0.10;;;;;;;31.93;22.67;100148.31;5052675;28;20025;-73
2022/06/13 08:55:14;;;;;;;0.10;0.10;;;;;;;32.09;22.68;100155.47;5053638;28;20468;-72
2022/06/13 08:57:46;;;;;;;0.10;0.10;;;;;;;32.18;21.45;100143.75;5054449;28;20155;-72
2022/06/13 09:00:21;;;;;;;0.10;0.10;;;;;;;32.21;21.88;100145.59;5052950;28;20049;-72
2022/06/13 09:03:00;;;;;;;0.10;0.10;;;;;;;33.01;20.72;100159.09;5053164;28;20036;-74
2022/06/13 09:05:49;;;;;;;0.10;0.10;;;;;;;32.31;21.98;100149.06;5052713;28;20483;-73
2022/06/13 09:08:46;;;;;;;0.10;0.10;;;;;;;33.02;21.31;100147.03;5052026;28;20395;-74
2022/06/13 09:11:20;;;;;;;0.10;0.10;;;;;;;32.09;22.20;100158.34;5052272;28;20027;-72
2022/06/13 09:14:18;;;;;;;0.10;0.10;;;;;;;33.38;19.79;100145.25;5054106;28;20033;-73
2022/06/13 09:16:53;;;;;;;0.10;0.10;;;;;;;33.89;19.99;100157.63;5047454;28;20044;-72
2022/06/13 09:19:27;;;;;;;0.10;0.10;;;;;;;33.59;19.20;100156.59;5052110;28;20037;-73
2022/06/13 09:22:18;;;;;;;0.10;0.10;;;;;;;34.39;17.20;100155.97;5052243;28;20119;-74
2022/06/13 09:25:06;;;;;;;0.10;0.10;;;;;;;35.20;16.22;100141.44;5053171;28;20041;-73
2022/06/13 09:27:50;;;;;;;0.10;0.10;;;;;;;35.70;16.23;100144.00;5052551;28;20082;-73
2022/06/13 09:30:23;;;;;;;0.10;0.10;;;;;;;35.98;16.13;100140.84;5053704;28;20032;-75
2022/06/13 09:32:57;;;;;;;0.10;0.10;;;;;;;36.64;15.08;100143.53;5052244;28;20017;-72
2022/06/13 09:35:26;;;;;;;0.10;0.10;;;;;;;35.06;15.84;100140.50;5052218;28;20025;-74
2022/06/13 09:38:03;;;;;;;0.10;0.10;;;;;;;33.70;17.14;100142.16;5052140;28;20028;-72
2022/06/13 09:40:53;;;;;;;0.10;0.10;;;;;;;34.03;17.91;100140.56;5052110;28;20025;-72
2022/06/13 09:43:50;;;;;;;0.10;0.10;;;;;;;33.92;17.87;100140.56;5051796;28;20041;-73
2022/06/13 09:46:25;;;;;;;0.10;0.10;;;;;;;33.67;16.72;100134.56;5051318;28;20041;-73
2022/06/13 09:49:20;;;;;;;0.10;0.10;;;;;;;33.71;16.94;100135.06;5052273;28;20033;-72
2022/06/13 09:51:55;;;;;;;0.10;0.10;;;;;;;32.68;17.28;100133.81;5052738;28;20075;-73
2022/06/13 09:54:48;;;;;;;0.10;0.10;;;;;;;32.57;17.84;100134.56;5052345;28;20058;-72
2022/06/13 09:57:42;;;;;;;0.10;0.10;;;;;;;32.47;19.14;100125.34;5051883;28;20035;-74
2022/06/13 10:00:16;;;;;;;0.10;0.10;;;;;;;33.65;17.55;100131.41;5051670;28;20472;-73
2022/06/13 10:02:45;;;;;;;0.10;0.10;;;;;;;32.63;18.64;100120.97;5052458;28;20032;-74
2022/06/13 10:05:32;;;;;;;0.10;0.10;;;;;;;32.63;18.93;100120.97;5051546;28;20087;-73
2022/06/13 10:08:22;;;;;;;0.10;0.10;;;;;;;32.37;18.79;100120.31;5051593;28;20025;-74
2022/06/13 10:11:01;;;;;;;0.10;0.10;;;;;;;32.18;18.88;100109.22;5051340;28;20043;-74
2022/06/13 10:13:26;;;;;;;0.10;0.10;;;;;;;32.18;18.61;100117.06;5051422;28;20025;-72
2022/06/13 10:16:36;;;;;;;0.10;0.10;;;;;;;32.52;20.58;100113.06;5051835;28;20029;-72
2022/06/13 10:19:22;;;;;;;0.10;0.10;;;;;;;34.20;19.54;100115.34;5029476;28;20037;-73
2022/06/13 10:21:58;;;;;;;0.10;0.10;;;;;;;35.07;18.87;100101.59;5051819;28;20090;-72
2022/06/13 10:24:50;;;;;;;0.10;0.10;;;;;;;34.18;18.09;100103.53;5036127;28;20380;-73
2022/06/13 10:27:51;;;;;;;0.10;0.10;;;;;;;35.89;17.42;100107.22;5041827;28;20048;-73
2022/06/13 10:30:25;;;;;;;0.10;0.10;;;;;;;36.15;17.22;100108.81;5051295;28;20428;-73
2022/06/13 10:33:21;;;;;;;0.10;0.10;;;;;;;36.13;16.50;100105.69;5051053;28;20040;-73
2022/06/13 10:36:22;;;;;;;0.10;0.10;;;;;;;36.32;15.62;100106.50;5051979;28;20434;-70
2022/06/13 10:38:54;;;;;;;0.10;0.10;;;;;;;36.00;16.07;100091.09;5041419;28;20041;-72
2022/06/13 10:41:21;;;;;;;0.10;0.10;;;;;;;36.46;16.01;100087.94;5055221;28;20029;-73
2022/06/13 10:43:47;;;;;;;0.10;0.10;;;;;;;36.32;16.98;100088.34;5055004;28;20132;-72
2022/06/13 10:46:14;;;;;;;0.10;0.10;;;;;;;36.17;16.93;100091.69;5055159;28;20055;-71
2022/06/13 10:48:52;;;;;;;0.10;0.10;;;;;;;36.10;16.12;100089.41;5055004;28;20035;-71
2022/06/13 10:51:22;;;;;;;0.10;0.10;;;;;;;36.43;16.09;100091.91;5055466;28;20460;-72
2022/06/13 10:53:57;;;;;;;0.10;0.10;;;;;;;36.46;16.17;100102.41;5056625;28;20108;-71
2022/06/13 10:56:40;;;;;;;0.10;0.10;;;;;;;36.63;15.74;100086.91;5056754;28;20021;-73
2022/06/13 10:59:06;;;;;;;0.10;0.10;;;;;;;36.88;15.39;100088.41;5054787;28;20029;-73
2022/06/13 11:01:32;;;;;;;0.10;0.10;;;;;;;36.58;15.59;100084.88;5056475;28;20107;-72
2022/06/13 11:04:00;;;;;;;0.10;0.10;;;;;;;36.64;15.29;100086.38;5055040;28;20055;-72
2022/06/13 11:06:53;;;;;;;0.10;0.10;;;;;;;37.09;15.45;100082.06;5054748;28;20112;-73
2022/06/13 11:09:37;;;;;;;0.10;0.10;;;;;;;37.07;15.50;100070.22;5047861;28;20045;-71
2022/06/13 11:12:16;;;;;;;0.10;0.10;;;;;;;36.73;16.30;100073.59;5054689;28;20029;-72
2022/06/13 11:23:20;;;;;;;0.10;0.10;;;;;;;35.06;20.92;100056.66;5055959;28;20088;-73
2022/06/13 11:25:55;;;;;;;0.10;0.10;;;;;;;34.26;21.43;100061.25;5056079;28;20025;-73
2022/06/13 11:28:24;;;;;;;0.10;0.10;;;;;;;34.36;20.25;100059.63;5054951;28;20028;-72
2022/06/13 11:31:19;;;;;;;0.10;0.10;;;;;;;35.05;17.72;100055.06;5054778;28;20049;-70
2022/06/13 11:33:44;;;;;;;0.10;0.10;;;;;;;34.82;21.34;100060.97;5054706;28;20422;-73
2022/06/13 11:36:26;;;;;;;0.10;0.10;;;;;;;33.79;22.79;100049.56;5054344;28;20086;-73
2022/06/13 11:39:03;;;;;;;0.10;0.10;;;;;;;33.29;23.35;100050.41;5054276;28;20017;-73
2022/06/13 11:41:36;;;;;;;0.10;0.10;;;;;;;33.63;23.24;100047.50;5054290;28;20024;-73
2022/06/13 11:44:10;;;;;;;0.10;0.10;;;;;;;33.24;23.11;100059.81;5054007;28;20538;-72
2022/06/13 11:47:01;;;;;;;0.10;0.10;;;;;;;33.13;23.63;100048.25;5054436;28;20102;-73
2022/06/13 11:49:39;;;;;;;0.10;0.10;;;;;;;32.95;24.22;100037.25;5047331;28;20037;-71
2022/06/13 11:53:35;;;;;;;0.10;0.10;;;;;;;32.88;24.27;100037.75;5054114;28;20033;-74
2022/06/13 11:55:01;;;;;;;0.10;0.10;;;;;;;33.78;23.07;100033.56;5054981;28;20090;-74
2022/06/13 11:57:33;;;;;;;0.10;0.10;;;;;;;33.34;23.63;100035.16;5037506;28;20033;-72
2022/06/13 12:00:15;;;;;;;0.10;0.10;;;;;;;32.94;24.21;100001.13;5055215;28;20079;-74
2022/06/13 12:02:50;;;;;;;0.10;0.10;;;;;;;33.61;23.61;100033.63;5055487;28;20113;-74
2022/06/13 12:05:19;;;;;;;0.10;0.10;;;;;;;33.32;23.53;100029.16;5054654;28;20029;-74
2022/06/13 12:08:04;;;;;;;0.10;0.10;;;;;;;33.43;23.75;100013.97;5053986;28;20025;-75
2022/06/13 12:10:36;;;;;;;0.10;0.10;;;;;;;34.07;22.59;100028.53;5054257;28;20456;-75
2022/06/13 12:13:03;;;;;;;0.10;0.10;;;;;;;34.00;22.93;100026.19;5053747;28;20029;-75
2022/06/13 12:15:40;;;;;;;0.10;0.10;;;;;;;33.33;23.56;100016.28;5053888;28;20414;-75
2022/06/13 12:18:24;;;;;;;0.10;0.10;;;;;;;33.68;23.38;100009.19;5053868;28;20025;-75
2022/06/13 12:21:15;;;;;;;0.10;0.10;;;;;;;33.22;24.18;100016.31;5054073;28;20123;-72